Startpagina
METAR-TAF:

METAR-TAF

Vliegvelden :

Productieplatform

K14-fa-1c, Nederland

breedte: 53-16-10N, lengte: 3-37-40E, hoogte: 28 m

Actueel weer

Dit bericht is 16 minuten geleden gemaakt, om 13:55 UTC
Wind 10 kt uit het oostzuidoosten, variërend tussen het oosten en het zuidzuidoosten
Temperatuur 7°C
Vochtigheid 93%
Druk 1028 hPa
Zicht 10 km of meer
Verspreide wolken op 500 ft
Geheel bewolkt op 600 ft

METAR: EHKV 161355Z AUTO 12010KT 100V160 9999 SCT005 OVC006 07/06 Q1028 W///H///

Tijdstip: 15:11 (14:11 UTC)


TAF: ontbreekt

Waarnemingen en weersverwachtingen van meer dan 4000 vliegvelden (METAR en TAF).

De beschikbare stations zijn de gele en rode punten op de kaart.

Ga met uw muis naar het station om de naam te zien.

Klik dan om waarnemingen en weersverwachtingen te zien.

kaart wijzigen: klik op de groene knoppen met een zwart kruis om in te zoomen, op de groene knop met een streepje om uit te zoomen of op de groene pijlen voor aangrenzende kaarten.


METAR-TAF: